createdAt,value
2018-03-03T00:00:29.846Z,16.78
2018-03-03T00:02:58.377Z,16.78
2018-03-03T00:05:26.636Z,16.77
2018-03-03T00:07:53.742Z,16.77
2018-03-03T00:10:20.840Z,16.77
2018-03-03T00:12:49.760Z,16.77
2018-03-03T00:15:16.908Z,16.77
2018-03-03T00:17:44.778Z,16.77
2018-03-03T00:20:12.639Z,16.76
2018-03-03T00:22:40.900Z,16.77
2018-03-03T00:25:09.118Z,16.76
2018-03-03T00:27:37.000Z,16.75
2018-03-03T00:30:05.605Z,16.75
2018-03-03T00:32:33.106Z,16.75
2018-03-03T00:35:01.321Z,16.75
2018-03-03T00:37:30.078Z,16.74
2018-03-03T00:39:57.569Z,16.75
2018-03-03T00:42:24.645Z,16.75
2018-03-03T00:44:51.721Z,16.74
2018-03-03T00:47:18.824Z,16.74
2018-03-03T00:49:47.042Z,16.74
2018-03-03T00:52:14.117Z,16.73
2018-03-03T00:54:41.233Z,16.73
2018-03-03T00:57:09.088Z,16.73
2018-03-03T00:59:36.943Z,16.73
2018-03-03T01:02:05.158Z,16.72
2018-03-03T01:04:32.253Z,16.73
2018-03-03T01:07:00.118Z,16.72
2018-03-03T01:09:27.976Z,16.72
2018-03-03T01:11:55.055Z,16.72
2018-03-03T01:14:22.907Z,16.72
2018-03-03T01:16:51.126Z,16.72
2018-03-03T01:19:19.342Z,16.72
2018-03-03T01:21:47.554Z,16.72
2018-03-03T01:24:14.625Z,16.71
2018-03-03T01:26:41.714Z,16.71
2018-03-03T01:29:09.185Z,16.70
2018-03-03T01:31:37.031Z,16.70
2018-03-03T01:34:05.246Z,16.71
2018-03-03T01:36:32.348Z,16.70
2018-03-03T01:38:59.425Z,16.69
2018-03-03T01:41:26.932Z,16.70
2018-03-03T01:43:54.052Z,16.69
2018-03-03T01:46:21.149Z,16.69
2018-03-03T01:48:49.766Z,16.70
2018-03-03T01:51:16.897Z,16.69
2018-03-03T01:53:45.238Z,16.69
2018-03-03T01:56:13.960Z,16.68
2018-03-03T01:58:41.062Z,16.68
2018-03-03T02:01:09.291Z,16.68
2018-03-03T02:03:37.530Z,16.68
2018-03-03T02:06:05.756Z,16.68
2018-03-03T02:08:34.012Z,16.68
2018-03-03T02:11:01.875Z,16.68
2018-03-03T02:13:28.986Z,16.67
2018-03-03T02:15:56.844Z,16.67
2018-03-03T02:18:24.998Z,16.67
2018-03-03T02:20:52.864Z,16.67
2018-03-03T02:23:20.748Z,16.67
2018-03-03T02:25:47.825Z,16.66
2018-03-03T02:28:14.951Z,16.66
2018-03-03T02:30:42.831Z,16.66
2018-03-03T02:33:10.738Z,16.66
2018-03-03T02:35:37.825Z,16.66
2018-03-03T02:38:04.948Z,16.65
2018-03-03T02:40:32.815Z,16.65
2018-03-03T02:42:59.937Z,16.65
2018-03-03T02:45:27.839Z,16.64
2018-03-03T02:47:55.701Z,16.64
2018-03-03T02:50:23.931Z,16.65
2018-03-03T02:52:51.812Z,16.65
2018-03-03T02:55:18.895Z,16.65
2018-03-03T02:57:47.745Z,16.64
2018-03-03T03:00:14.845Z,16.64
2018-03-03T03:02:41.965Z,16.65
2018-03-03T03:05:09.808Z,16.64
2018-03-03T03:07:36.906Z,16.64
2018-03-03T03:10:05.646Z,16.64
2018-03-03T03:12:32.740Z,16.63
2018-03-03T03:14:59.820Z,16.63
2018-03-03T03:17:27.712Z,16.63
2018-03-03T03:19:54.794Z,16.63
2018-03-03T03:22:21.888Z,16.63
2018-03-03T03:24:48.975Z,16.62
2018-03-03T03:27:17.199Z,16.62
2018-03-03T03:29:45.437Z,16.62
2018-03-03T03:32:13.649Z,16.62
2018-03-03T03:34:42.406Z,16.62
2018-03-03T03:37:09.907Z,16.62
2018-03-03T03:39:38.665Z,16.62
2018-03-03T03:42:06.579Z,16.61
2018-03-03T03:44:34.798Z,16.61
2018-03-03T03:47:03.009Z,16.60
2018-03-03T03:49:30.862Z,16.61
2018-03-03T03:51:57.934Z,16.61
2018-03-03T03:54:25.012Z,16.60
2018-03-03T03:56:52.868Z,16.60
2018-03-03T03:59:21.455Z,16.60
2018-03-03T04:01:48.923Z,16.61
2018-03-03T04:04:17.659Z,16.59
2018-03-03T04:06:45.152Z,16.60
2018-03-03T04:09:13.367Z,16.59
2018-03-03T04:11:42.089Z,16.59
2018-03-03T04:14:09.575Z,16.59
2018-03-03T04:16:37.804Z,16.58
2018-03-03T04:19:04.901Z,16.58
2018-03-03T04:21:31.990Z,16.58
2018-03-03T04:23:59.495Z,16.58
2018-03-03T04:26:27.728Z,16.58
2018-03-03T04:28:55.949Z,16.57
2018-03-03T04:31:23.803Z,16.57
2018-03-03T04:33:50.901Z,16.57
2018-03-03T04:36:18.009Z,16.57
2018-03-03T04:38:45.486Z,16.56
2018-03-03T04:41:12.589Z,16.57
2018-03-03T04:43:39.684Z,16.57
2018-03-03T04:46:07.912Z,16.57
2018-03-03T04:48:35.023Z,16.57
2018-03-03T04:51:03.271Z,16.57
2018-03-03T04:53:31.512Z,16.58
2018-03-03T04:55:59.737Z,16.57
2018-03-03T05:01:38.707Z,16.57
2018-03-03T05:04:09.704Z,16.58
2018-03-03T05:06:38.309Z,16.58
2018-03-03T05:09:05.788Z,16.57
2018-03-03T05:11:34.023Z,16.57
2018-03-03T05:14:12.961Z,16.57
2018-03-03T05:19:50.758Z,16.56
2018-03-03T05:22:24.588Z,16.56
2018-03-03T05:24:58.738Z,16.56
2018-03-03T05:30:40.665Z,16.55
2018-03-03T05:33:14.448Z,16.56
2018-03-03T05:35:57.213Z,16.55
2018-03-03T05:38:31.431Z,16.55
2018-03-03T05:44:11.217Z,16.55
2018-03-03T05:46:39.075Z,16.54
2018-03-03T05:49:24.654Z,16.54
2018-03-03T05:52:10.032Z,16.54
2018-03-03T05:54:42.877Z,16.54
2018-03-03T06:00:25.485Z,16.54
2018-03-03T06:03:08.793Z,16.53
2018-03-03T06:05:42.627Z,16.53
2018-03-03T06:08:12.623Z,16.53
2018-03-03T06:10:41.358Z,16.52
2018-03-03T06:13:10.442Z,16.52
2018-03-03T06:15:38.296Z,16.52
2018-03-03T06:18:05.802Z,16.53
2018-03-03T06:20:34.036Z,16.52
2018-03-03T06:23:01.152Z,16.52
2018-03-03T06:25:29.007Z,16.52
2018-03-03T06:27:56.120Z,16.52
2018-03-03T06:30:24.863Z,16.52
2018-03-03T06:32:51.961Z,16.52
2018-03-03T06:35:20.722Z,16.52
2018-03-03T06:37:47.821Z,16.51
2018-03-03T06:40:16.555Z,16.52
2018-03-03T06:42:45.185Z,16.51
2018-03-03T06:45:13.030Z,16.51
2018-03-03T06:47:41.264Z,16.51
2018-03-03T06:50:09.165Z,16.51
2018-03-03T06:52:36.288Z,16.51
2018-03-03T06:55:03.375Z,16.51
2018-03-03T06:57:31.217Z,16.51
2018-03-03T06:59:59.071Z,16.50
2018-03-03T07:02:26.932Z,16.50
2018-03-03T07:04:54.015Z,16.50
2018-03-03T07:07:21.089Z,16.49
2018-03-03T07:09:49.319Z,16.50
2018-03-03T07:12:17.169Z,16.50
2018-03-03T07:17:47.473Z,16.49
2018-03-03T07:20:14.946Z,16.49
2018-03-03T07:22:43.181Z,16.49
2018-03-03T07:25:11.044Z,16.49
2018-03-03T07:27:38.924Z,16.49
2018-03-03T07:30:07.142Z,16.49
2018-03-03T07:32:34.990Z,16.48
2018-03-03T07:35:02.086Z,16.48
2018-03-03T07:37:29.170Z,16.48
2018-03-03T07:39:57.032Z,16.49
2018-03-03T07:42:25.288Z,16.48
2018-03-03T07:44:53.152Z,16.49
2018-03-03T07:47:21.367Z,16.48
2018-03-03T07:49:49.585Z,16.48
2018-03-03T07:52:17.053Z,16.47
2018-03-03T07:54:44.130Z,16.47
2018-03-03T07:57:11.977Z,16.48
2018-03-03T07:59:39.073Z,16.48
2018-03-03T08:02:07.285Z,16.47
2018-03-03T08:04:35.501Z,16.47
2018-03-03T08:07:03.733Z,16.47
2018-03-03T08:09:31.209Z,16.47
2018-03-03T08:11:58.303Z,16.47
2018-03-03T08:14:25.379Z,16.47
2018-03-03T08:16:54.131Z,16.47
2018-03-03T08:19:21.610Z,16.46
2018-03-03T08:21:49.839Z,16.46
2018-03-03T08:24:16.924Z,16.45
2018-03-03T08:26:44.015Z,16.45
2018-03-03T08:29:11.500Z,16.46
2018-03-03T08:31:39.347Z,16.46
2018-03-03T08:34:07.593Z,16.45
2018-03-03T08:36:35.810Z,16.45
2018-03-03T08:39:02.890Z,16.45
2018-03-03T08:41:30.734Z,16.46
2018-03-03T08:43:57.890Z,16.44
2018-03-03T08:46:25.734Z,16.45
2018-03-03T08:48:53.617Z,16.45
2018-03-03T08:51:21.878Z,16.45
2018-03-03T08:53:50.136Z,16.45
2018-03-03T08:56:17.216Z,16.46
2018-03-03T08:58:45.091Z,16.46
2018-03-03T09:01:13.324Z,16.46
2018-03-03T09:03:41.190Z,16.43
2018-03-03T09:06:09.043Z,16.44
2018-03-03T09:08:37.282Z,16.45
2018-03-03T09:11:04.380Z,16.45
2018-03-03T09:13:33.142Z,16.45
2018-03-03T09:16:01.378Z,16.43
2018-03-03T09:18:29.270Z,16.44
2018-03-03T09:20:57.114Z,16.44
2018-03-03T09:23:24.194Z,16.44
2018-03-03T09:25:52.054Z,16.43
2018-03-03T09:28:19.130Z,16.44
2018-03-03T09:30:47.346Z,16.43
2018-03-03T09:33:14.836Z,16.43
2018-03-03T09:35:41.917Z,16.42
2018-03-03T09:38:09.020Z,16.43
2018-03-03T09:40:37.237Z,16.42
2018-03-03T09:43:05.115Z,16.41
2018-03-03T09:45:32.335Z,16.41
2018-03-03T09:47:59.443Z,16.41
2018-03-03T09:50:27.324Z,16.42
2018-03-03T09:52:55.228Z,16.41
2018-03-03T09:55:23.466Z,16.41
2018-03-03T09:57:51.337Z,16.42
2018-03-03T10:00:19.199Z,16.41
2018-03-03T10:02:47.476Z,16.42
2018-03-03T10:05:16.089Z,16.42
2018-03-03T10:07:44.170Z,16.42
2018-03-03T10:10:11.660Z,16.42
2018-03-03T10:12:39.927Z,16.42
2018-03-03T10:15:07.797Z,16.42
2018-03-03T10:17:34.882Z,16.42
2018-03-03T10:20:03.620Z,16.42
2018-03-03T10:22:30.719Z,16.42
2018-03-03T10:24:59.339Z,16.42
2018-03-03T10:27:27.229Z,16.42
2018-03-03T10:29:55.994Z,16.42
2018-03-03T10:32:23.085Z,16.41
2018-03-03T10:34:51.331Z,16.42
2018-03-03T10:37:19.193Z,16.42
2018-03-03T10:39:47.695Z,16.42
2018-03-03T10:42:15.178Z,16.41
2018-03-03T10:44:43.405Z,16.41
2018-03-03T10:47:11.268Z,16.40
2018-03-03T10:49:39.510Z,16.40
2018-03-03T10:52:07.462Z,16.41
2018-03-03T10:54:35.684Z,16.40
2018-03-03T10:57:02.757Z,16.40
2018-03-03T10:59:29.860Z,16.40
2018-03-03T11:01:57.352Z,16.40
2018-03-03T11:04:25.586Z,16.39
2018-03-03T11:06:54.175Z,16.39
2018-03-03T11:09:21.647Z,16.39
2018-03-03T11:11:49.863Z,16.39
2018-03-03T11:14:18.101Z,16.39
2018-03-03T11:16:46.313Z,16.41
2018-03-03T11:19:13.415Z,16.42
2018-03-03T11:21:41.258Z,16.42
2018-03-03T11:24:09.494Z,16.43
2018-03-03T11:26:37.352Z,16.45
2018-03-03T11:29:05.215Z,16.46
2018-03-03T11:31:32.307Z,16.47
2018-03-03T11:33:59.396Z,16.47
2018-03-03T11:36:27.256Z,16.47
2018-03-03T11:38:54.342Z,16.48
2018-03-03T11:41:22.195Z,16.47
2018-03-03T11:43:50.411Z,16.48
2018-03-03T11:46:18.335Z,16.48
2018-03-03T11:48:45.409Z,16.48
2018-03-03T11:51:13.257Z,16.49
2018-03-03T11:53:40.333Z,16.48
2018-03-03T11:56:08.192Z,16.49
2018-03-03T11:58:35.289Z,16.49
2018-03-03T12:01:04.013Z,16.49
2018-03-03T12:03:31.502Z,16.48
2018-03-03T12:05:59.432Z,16.48
2018-03-03T12:08:28.035Z,16.49
2018-03-03T12:10:55.156Z,16.48
2018-03-03T12:13:22.647Z,16.49
2018-03-03T12:15:51.387Z,16.49
2018-03-03T12:18:19.244Z,16.49
2018-03-03T12:20:47.453Z,16.49
2018-03-03T12:23:15.298Z,16.49
2018-03-03T12:25:43.523Z,16.49
2018-03-03T12:28:11.388Z,16.49
2018-03-03T12:30:39.615Z,16.49
2018-03-03T12:33:07.849Z,16.48
2018-03-03T12:35:36.076Z,16.49
2018-03-03T12:38:03.941Z,16.50
2018-03-03T12:40:32.159Z,16.49
2018-03-03T12:42:59.253Z,16.50
2018-03-03T12:45:27.481Z,16.49
2018-03-03T12:47:55.351Z,16.49
2018-03-03T12:50:22.443Z,16.53
2018-03-03T12:52:50.314Z,16.51
2018-03-03T12:55:18.154Z,16.49
2018-03-03T12:57:46.904Z,16.49
2018-03-03T13:00:15.509Z,16.48
2018-03-03T13:02:44.133Z,16.48
2018-03-03T13:05:11.997Z,16.48
2018-03-03T13:07:39.483Z,16.47
2018-03-03T13:10:07.325Z,16.49
2018-03-03T13:12:35.975Z,16.48
2018-03-03T13:15:04.094Z,16.48
2018-03-03T13:17:31.957Z,16.46
2018-03-03T13:19:59.039Z,16.46
2018-03-03T13:22:26.136Z,16.46
2018-03-03T13:24:53.628Z,16.45
2018-03-03T13:27:21.488Z,16.47
2018-03-03T13:29:49.705Z,16.47
2018-03-03T13:32:17.932Z,16.49
2018-03-03T13:34:46.151Z,16.51
2018-03-03T13:37:14.362Z,16.53
2018-03-03T13:39:41.461Z,16.53
2018-03-03T13:42:09.306Z,16.55
2018-03-03T13:44:36.386Z,16.55
2018-03-03T13:47:03.480Z,16.56
2018-03-03T13:49:30.558Z,16.56
2018-03-03T13:51:57.636Z,16.57
2018-03-03T13:54:25.500Z,16.58
2018-03-03T13:56:53.733Z,16.58
2018-03-03T13:59:20.810Z,16.58
2018-03-03T14:01:47.894Z,16.58
2018-03-03T14:04:16.482Z,16.59
2018-03-03T14:06:43.581Z,16.60
2018-03-03T14:09:11.425Z,16.61
2018-03-03T14:11:38.502Z,16.60
2018-03-03T14:14:06.351Z,16.61
2018-03-03T14:16:33.443Z,16.61
2018-03-03T14:19:01.293Z,16.62
2018-03-03T14:21:31.373Z,16.62
2018-03-03T14:23:59.699Z,16.63
2018-03-03T14:26:27.540Z,16.63
2018-03-03T14:28:55.754Z,16.63
2018-03-03T14:31:23.914Z,16.63
2018-03-03T14:33:51.434Z,16.64
2018-03-03T14:36:18.522Z,16.64
2018-03-03T14:38:45.612Z,16.63
2018-03-03T14:41:13.474Z,16.64
2018-03-03T14:43:41.694Z,16.65
2018-03-03T14:46:09.560Z,16.65
2018-03-03T14:48:38.295Z,16.65
2018-03-03T14:51:05.520Z,16.65
2018-03-03T14:53:34.136Z,16.66
2018-03-03T14:56:02.350Z,16.67
2018-03-03T14:58:29.454Z,16.67
2018-03-03T15:00:58.055Z,16.68
2018-03-03T15:03:25.664Z,16.67
2018-03-03T15:05:53.877Z,16.68
2018-03-03T15:08:22.495Z,16.69
2018-03-03T15:10:49.984Z,16.69
2018-03-03T15:13:17.149Z,16.68
2018-03-03T15:15:44.257Z,16.69
2018-03-03T15:18:11.923Z,16.70
2018-03-03T15:20:40.808Z,16.69
2018-03-03T15:23:07.906Z,16.70
2018-03-03T15:25:36.121Z,16.71
2018-03-03T15:28:04.690Z,16.70
2018-03-03T15:30:33.430Z,16.71
2018-03-03T15:33:00.541Z,16.72
2018-03-03T15:35:28.313Z,16.72
2018-03-03T15:37:57.845Z,16.72
2018-03-03T15:40:26.588Z,16.72
2018-03-03T15:42:54.403Z,16.72
2018-03-03T15:45:23.005Z,16.73
2018-03-03T15:47:52.377Z,16.73
2018-03-03T15:50:20.195Z,16.73
2018-03-03T15:52:49.160Z,16.74
2018-03-03T15:55:17.894Z,16.73
2018-03-03T15:57:47.634Z,16.73
2018-03-03T16:00:16.221Z,16.72
2018-03-03T16:02:45.568Z,16.72
2018-03-03T16:05:14.030Z,16.71
2018-03-03T16:07:42.098Z,16.71
2018-03-03T16:10:11.017Z,16.72
2018-03-03T16:12:40.445Z,16.72
2018-03-03T16:15:07.754Z,16.73
2018-03-03T16:17:36.760Z,16.74
2018-03-03T16:20:04.642Z,16.74
2018-03-03T16:22:32.213Z,16.75
2018-03-03T16:25:00.189Z,16.75
2018-03-03T16:27:29.407Z,16.76
2018-03-03T16:29:57.023Z,16.75
2018-03-03T16:32:26.498Z,16.76
2018-03-03T16:34:54.477Z,16.76
2018-03-03T16:37:22.869Z,16.77
2018-03-03T16:39:50.337Z,16.77
2018-03-03T16:42:17.911Z,16.77
2018-03-03T16:44:46.303Z,16.78
2018-03-03T16:47:13.669Z,16.78
2018-03-03T16:49:41.541Z,16.78
2018-03-03T16:52:09.771Z,16.78
2018-03-03T16:54:37.628Z,16.79
2018-03-03T16:57:06.366Z,16.79
2018-03-03T16:59:33.452Z,16.79
2018-03-03T17:02:00.925Z,16.79
2018-03-03T17:04:28.119Z,16.80
2018-03-03T17:06:55.231Z,16.81
2018-03-03T17:09:22.427Z,16.81
2018-03-03T17:11:50.675Z,16.81
2018-03-03T17:14:17.875Z,16.82
2018-03-03T17:16:45.412Z,16.81
2018-03-03T17:19:12.499Z,16.82
2018-03-03T17:21:40.412Z,16.82
2018-03-03T17:24:07.581Z,16.82
2018-03-03T17:26:34.674Z,16.82
2018-03-03T17:29:01.772Z,16.83
2018-03-03T17:31:29.982Z,16.83
2018-03-03T17:33:58.198Z,16.83
2018-03-03T17:36:26.433Z,16.84
2018-03-03T17:38:53.510Z,16.84
2018-03-03T17:41:21.477Z,16.84
2018-03-03T17:43:49.897Z,16.85
2018-03-03T17:46:17.756Z,16.85
2018-03-03T17:48:46.175Z,16.85
2018-03-03T17:51:13.711Z,16.85
2018-03-03T17:53:40.868Z,16.86
2018-03-03T17:56:09.583Z,16.86
2018-03-03T17:58:37.804Z,16.87
2018-03-03T18:01:05.774Z,16.87
2018-03-03T18:03:33.675Z,16.87
2018-03-03T18:06:01.903Z,16.88
2018-03-03T18:08:30.520Z,16.88
2018-03-03T18:10:59.270Z,16.88
2018-03-03T18:13:26.395Z,16.88
2018-03-03T18:15:54.238Z,16.87
2018-03-03T18:18:21.742Z,16.88
2018-03-03T18:20:50.492Z,16.89
2018-03-03T18:23:17.754Z,16.89
2018-03-03T18:25:46.485Z,16.89
2018-03-03T18:28:14.811Z,16.90
2018-03-03T18:30:42.042Z,16.90
2018-03-03T18:33:09.918Z,16.90
2018-03-03T18:35:37.934Z,16.90
2018-03-03T18:38:05.374Z,16.91
2018-03-03T18:40:34.096Z,16.91
2018-03-03T18:43:02.919Z,16.92
2018-03-03T18:45:30.363Z,16.91
2018-03-03T18:47:58.344Z,16.92
2018-03-03T18:50:27.046Z,16.92
2018-03-03T18:52:54.203Z,16.93
2018-03-03T18:55:22.060Z,16.93
2018-03-03T18:57:50.327Z,16.93
2018-03-03T19:00:17.458Z,16.93
2018-03-03T19:02:44.707Z,16.93
2018-03-03T19:05:11.859Z,16.94
2018-03-03T19:07:39.238Z,16.93
2018-03-03T19:10:06.517Z,16.94
2018-03-03T19:12:35.418Z,16.95
2018-03-03T19:15:04.722Z,16.94
2018-03-03T19:17:32.935Z,16.95
2018-03-03T19:20:01.086Z,16.95
2018-03-03T19:22:30.501Z,16.95
2018-03-03T19:24:58.894Z,16.95
2018-03-03T19:27:26.467Z,16.96
2018-03-03T19:29:54.169Z,16.96
2018-03-03T19:32:22.702Z,16.97
2018-03-03T19:34:49.941Z,16.97
2018-03-03T19:37:17.986Z,16.97
2018-03-03T19:39:46.478Z,16.97
2018-03-03T19:42:14.564Z,16.97
2018-03-03T19:44:42.495Z,16.97
2018-03-03T19:47:11.387Z,16.98
2018-03-03T19:49:40.119Z,16.98
2018-03-03T19:52:07.685Z,16.98
2018-03-03T19:54:36.518Z,16.99
2018-03-03T19:57:05.423Z,16.99
2018-03-03T19:59:32.547Z,16.98
2018-03-03T20:01:59.790Z,16.99
2018-03-03T20:04:28.616Z,17.00
2018-03-03T20:06:55.900Z,17.00
2018-03-03T20:09:24.764Z,17.00
2018-03-03T20:11:52.823Z,17.01
2018-03-03T20:14:20.682Z,17.00
2018-03-03T20:16:47.917Z,17.01
2018-03-03T20:19:15.827Z,17.02
2018-03-03T20:21:44.009Z,17.02
2018-03-03T20:24:13.636Z,17.01
2018-03-03T20:26:43.150Z,17.01
2018-03-03T20:29:10.820Z,17.01
2018-03-03T20:31:38.356Z,17.01
2018-03-03T20:34:06.522Z,17.00
2018-03-03T20:36:34.677Z,16.99
2018-03-03T20:39:02.866Z,16.98
2018-03-03T20:41:30.066Z,16.98
2018-03-03T20:43:57.591Z,16.98
2018-03-03T20:46:24.967Z,17.00
2018-03-03T20:48:52.643Z,17.01
2018-03-03T20:51:20.580Z,17.02
2018-03-03T20:53:49.416Z,17.02
2018-03-03T20:56:16.960Z,17.04
2018-03-03T20:58:44.864Z,17.03
2018-03-03T21:01:13.669Z,17.04
2018-03-03T21:03:42.158Z,17.04
2018-03-03T21:06:10.603Z,17.05
2018-03-03T21:08:37.919Z,17.04
2018-03-03T21:11:07.742Z,17.06
2018-03-03T21:13:35.727Z,17.05
2018-03-03T21:16:03.687Z,17.05
2018-03-03T21:18:33.144Z,17.05
2018-03-03T21:21:01.207Z,17.07
2018-03-03T21:23:31.000Z,17.07
2018-03-03T21:25:59.284Z,17.07
2018-03-03T21:28:26.536Z,17.07
2018-03-03T21:30:54.570Z,17.08
2018-03-03T21:33:22.167Z,17.07
2018-03-03T21:35:51.148Z,17.08
2018-03-03T21:38:18.822Z,17.07
2018-03-03T21:40:46.136Z,17.09
2018-03-03T21:43:14.172Z,17.08
2018-03-03T21:45:42.460Z,17.09
2018-03-03T21:48:10.292Z,17.09
2018-03-03T21:50:38.589Z,17.10
2018-03-03T21:53:06.611Z,17.11
2018-03-03T21:55:34.800Z,17.10
2018-03-03T21:58:02.577Z,17.10
2018-03-03T22:00:31.348Z,17.09
2018-03-03T22:02:58.743Z,17.10
2018-03-03T22:22:27.011Z,17.07
2018-03-03T22:24:54.924Z,17.06
2018-03-03T22:27:22.766Z,17.06
2018-03-03T22:39:27.649Z,17.06
2018-03-03T22:41:56.388Z,17.06
2018-03-03T22:44:24.612Z,17.05
2018-03-03T22:46:52.096Z,17.05
